Pacific Palisades, CA

8:33 AM PDT on August 02, 2015 (GMT -0700)
KCAPACIF37 | | Change Station
CLOSE
Current Station
Personal Weather Station
Location: Pacific Palisades, CA
Elevation: 312 ft
Nearby Weather Stations

Elev 312 ft 34.05 °N, 118.54 °W | Updated 12 seconds ago

Partly Cloudy
Partly Cloudy
68.9 °F
Feels Like 68.9 °F
N
0.0
Wind Variable Wind from WSW
Gusts 2.0 mph

Today
High -- | Low -- °F
--% Chance of Precip.
Yesterday
High -- | Low -- °F
Precip. -- in
6:06 AM 7:54 PM
Waning Gibbous, 93% visible
Pressure 29.92 in
Visibility 9.0 miles
Clouds Overcast 1200 ft
Dew Point 65 °F
Humidity 87%
Rainfall 0.00 in
Snow Depth Not available.
UV 0 out of 12
Pollen 3.70 out of 12
Air Quality Not available.
Flu Activity Not available.
METAR KSMO 021451Z 31003KT 9SM OVC012 21/17 A2992 RMK AO2 SLP131 T02110172 53012

More Conditions Fewer Conditions

Pressure 29.92 in
Visibility 9.0 miles
Clouds Overcast 1200 ft
Dew Point 65 °F
Humidity 87%
Rainfall 0.00 in
Snow Depth Not available.
UV 0 out of 12
Pollen 3.70 out of 12
Air Quality Not available.
Flu Activity Not available.
METAR KSMO 021451Z 31003KT 9SM OVC012 21/17 A2992 RMK AO2 SLP131 T02110172 53012

More Conditions Fewer Conditions

10-Day Weather Forecast

×

Almanac

Astronomy

Aug. 02, 2015 Rise Set
Actual Time
Civil Twilight
Nautical Twilight
Astronomical Twilight
Moon
Length of Visible Light
Length of Day
Tomorrow will be .
, % of the Moon is Illuminated

Today's Extremes

State Highs State Lows

Community

WunderPhotos

Upload Photos

1,843,280 photos uploaded!

WunderBlogs® & News

Nearby

Air Quality

  Air Quality AQ Index Pollutant
Not available.

Snow Depth

Station Depth Elevation

Earthquake Activity

City Distance Mag. Time & Date
Minimum magnitude displayed is 2.5.

Coastal Water Temperatures

Place Temperature

Stations

Nearby Weather Stations

Station Location Temp. Windchill Dew Point Humidity Wind Precip. Elev Updated Type